メインページ
METAR-TAF:

METAR-TAF

空港 :

ウシュアイア, アルゼンチン

ウシュアイア国際空港

緯度: 54-48S, 経度: 068-19W, 海抜: 16m

現時点の気象観測

当レポートは1時間32分前の14:00(UTC)に作成
の風 5kt
気温 -3°C
湿度 93%
気圧 1019 hPa
視程10km以上
1,500メートル以下は雲なし、積乱雲なし

METAR: SAWH 251400Z 36005KT CAVOK M03/M04 Q1019

時間: 12:32 (15:32 UTC)

予報

当レポートは4時間32分前の11:00(UTC)に作成
予報は25日の 12時(UTC)から 26日の 12時(UTC)まで有効
の風 8kt
視程10km以上
1,500メートル以下は雲なし、積乱雲なし
25日の 15時(UTC)から 25日の 17時(UTC)まで徐々に
西/南西の風 15kt
視程10km以上
高度3000ftの雲はほとんどない
高度9000ftの雲は散在している

TAF: SAWH 251100Z 2512/2612 36008KT CAVOK TXM02/2419Z TNM07/2512Z BECMG 2515/2517 25015KT 9999 FEW030 SCT090

4,000以上の空港の気象観測と天気予報(METAR報とTAF報)

利用可能な観測所は地図上に黄色い丸と赤い丸で示す。

丸の上にカーソルを重ねると観測所名を参照できる。

次にクリックすると気象観測と天気予報を参照できる。

マップの切り替え:黒色「×」印の緑ボタンをクリックして拡大、「-」印の緑ボタンをクリックして縮小、緑色の三角印をクリックして隣りの地図に切り替え


METAR-TAF: